sensor_id;sensor_type;location;lat;lon;timestamp;P1;durP1;ratioP1;P2;durP2;ratioP2
41923;SDS011;27613;48.116;11.656;2022-11-06T00:00:22;9.43;;;8.18;;
41923;SDS011;27613;48.116;11.656;2022-11-06T00:02:48;14.38;;;8.88;;
41923;SDS011;27613;48.116;11.656;2022-11-06T00:05:13;15.93;;;10.18;;
41923;SDS011;27613;48.116;11.656;2022-11-06T00:07:57;12.15;;;9.70;;
41923;SDS011;27613;48.116;11.656;2022-11-06T00:10:23;15.38;;;10.23;;
41923;SDS011;27613;48.116;11.656;2022-11-06T00:12:49;13.88;;;9.75;;
41923;SDS011;27613;48.116;11.656;2022-11-06T00:15:15;13.05;;;10.38;;
41923;SDS011;27613;48.116;11.656;2022-11-06T00:17:41;11.65;;;9.30;;
41923;SDS011;27613;48.116;11.656;2022-11-06T00:20:07;12.98;;;10.10;;
41923;SDS011;27613;48.116;11.656;2022-11-06T00:22:34;12.07;;;9.93;;
41923;SDS011;27613;48.116;11.656;2022-11-06T00:25:00;12.57;;;9.45;;
41923;SDS011;27613;48.116;11.656;2022-11-06T00:27:27;13.18;;;9.70;;
41923;SDS011;27613;48.116;11.656;2022-11-06T00:29:53;10.85;;;9.02;;
41923;SDS011;27613;48.116;11.656;2022-11-06T00:32:18;12.02;;;9.05;;
41923;SDS011;27613;48.116;11.656;2022-11-06T00:34:44;12.70;;;9.48;;
41923;SDS011;27613;48.116;11.656;2022-11-06T00:37:11;12.13;;;9.90;;
41923;SDS011;27613;48.116;11.656;2022-11-06T00:39:36;11.35;;;9.00;;
41923;SDS011;27613;48.116;11.656;2022-11-06T00:42:02;11.65;;;9.38;;
41923;SDS011;27613;48.116;11.656;2022-11-06T00:44:28;11.85;;;9.32;;
41923;SDS011;27613;48.116;11.656;2022-11-06T00:46:53;12.25;;;9.65;;
41923;SDS011;27613;48.116;11.656;2022-11-06T00:49:19;13.15;;;9.75;;
41923;SDS011;27613;48.116;11.656;2022-11-06T00:51:44;13.73;;;10.05;;
41923;SDS011;27613;48.116;11.656;2022-11-06T00:54:10;10.98;;;9.18;;
41923;SDS011;27613;48.116;11.656;2022-11-06T00:56:37;10.85;;;8.68;;
41923;SDS011;27613;48.116;11.656;2022-11-06T00:59:04;16.60;;;10.40;;
41923;SDS011;27613;48.116;11.656;2022-11-06T01:01:31;10.73;;;8.40;;
41923;SDS011;27613;48.116;11.656;2022-11-06T01:04:03;17.38;;;10.43;;
41923;SDS011;27613;48.116;11.656;2022-11-06T01:06:31;13.40;;;9.30;;
41923;SDS011;27613;48.116;11.656;2022-11-06T01:09:02;10.48;;;8.68;;
41923;SDS011;27613;48.116;11.656;2022-11-06T01:11:30;12.60;;;9.27;;
41923;SDS011;27613;48.116;11.656;2022-11-06T01:13:59;11.80;;;8.77;;
41923;SDS011;27613;48.116;11.656;2022-11-06T01:16:25;10.77;;;8.65;;
41923;SDS011;27613;48.116;11.656;2022-11-06T01:18:52;11.30;;;9.18;;
41923;SDS011;27613;48.116;11.656;2022-11-06T01:21:22;11.10;;;8.52;;
41923;SDS011;27613;48.116;11.656;2022-11-06T01:23:54;14.05;;;9.02;;
41923;SDS011;27613;48.116;11.656;2022-11-06T01:26:21;11.23;;;7.93;;
41923;SDS011;27613;48.116;11.656;2022-11-06T01:28:48;10.82;;;8.43;;
41923;SDS011;27613;48.116;11.656;2022-11-06T01:31:15;9.43;;;7.88;;
41923;SDS011;27613;48.116;11.656;2022-11-06T01:33:43;10.38;;;8.90;;
41923;SDS011;27613;48.116;11.656;2022-11-06T01:36:10;9.38;;;7.63;;
41923;SDS011;27613;48.116;11.656;2022-11-06T01:38:41;10.18;;;7.90;;
41923;SDS011;27613;48.116;11.656;2022-11-06T01:41:08;9.13;;;7.15;;
41923;SDS011;27613;48.116;11.656;2022-11-06T01:43:44;10.05;;;7.63;;
41923;SDS011;27613;48.116;11.656;2022-11-06T01:46:37;10.40;;;7.43;;
41923;SDS011;27613;48.116;11.656;2022-11-06T01:49:04;9.95;;;7.13;;
41923;SDS011;27613;48.116;11.656;2022-11-06T01:51:36;8.82;;;7.03;;
41923;SDS011;27613;48.116;11.656;2022-11-06T01:54:05;10.98;;;7.55;;
41923;SDS011;27613;48.116;11.656;2022-11-06T01:56:33;9.30;;;7.95;;
41923;SDS011;27613;48.116;11.656;2022-11-06T01:59:02;10.95;;;8.13;;
41923;SDS011;27613;48.116;11.656;2022-11-06T02:01:29;9.77;;;7.88;;
41923;SDS011;27613;48.116;11.656;2022-11-06T02:03:59;14.20;;;9.15;;
41923;SDS011;27613;48.116;11.656;2022-11-06T02:06:44;10.88;;;8.25;;
41923;SDS011;27613;48.116;11.656;2022-11-06T02:09:11;7.95;;;6.78;;
41923;SDS011;27613;48.116;11.656;2022-11-06T02:11:40;8.80;;;7.22;;
41923;SDS011;27613;48.116;11.656;2022-11-06T02:14:13;10.15;;;7.07;;
41923;SDS011;27613;48.116;11.656;2022-11-06T02:16:45;10.03;;;7.63;;
41923;SDS011;27613;48.116;11.656;2022-11-06T02:22:04;9.43;;;6.97;;
41923;SDS011;27613;48.116;11.656;2022-11-06T02:27:23;10.40;;;7.07;;
41923;SDS011;27613;48.116;11.656;2022-11-06T02:38:17;6.65;;;5.63;;
41923;SDS011;27613;48.116;11.656;2022-11-06T02:40:57;7.30;;;5.95;;
41923;SDS011;27613;48.116;11.656;2022-11-06T02:43:27;8.45;;;6.45;;
41923;SDS011;27613;48.116;11.656;2022-11-06T02:46:04;11.52;;;6.57;;
41923;SDS011;27613;48.116;11.656;2022-11-06T02:48:36;7.40;;;6.40;;
41923;SDS011;27613;48.116;11.656;2022-11-06T02:51:06;7.75;;;6.40;;
41923;SDS011;27613;48.116;11.656;2022-11-06T02:53:37;11.77;;;7.30;;
41923;SDS011;27613;48.116;11.656;2022-11-06T02:56:07;9.13;;;6.50;;
41923;SDS011;27613;48.116;11.656;2022-11-06T02:58:38;6.97;;;6.10;;
41923;SDS011;27613;48.116;11.656;2022-11-06T03:01:26;8.73;;;6.15;;
41923;SDS011;27613;48.116;11.656;2022-11-06T03:03:56;7.43;;;6.13;;
41923;SDS011;27613;48.116;11.656;2022-11-06T03:06:27;8.05;;;6.32;;
41923;SDS011;27613;48.116;11.656;2022-11-06T03:09:09;7.60;;;6.30;;
41923;SDS011;27613;48.116;11.656;2022-11-06T03:11:38;7.55;;;5.82;;
41923;SDS011;27613;48.116;11.656;2022-11-06T03:24:34;10.77;;;7.53;;
41923;SDS011;27613;48.116;11.656;2022-11-06T03:27:21;8.27;;;6.68;;
41923;SDS011;27613;48.116;11.656;2022-11-06T03:30:03;8.82;;;6.72;;
41923;SDS011;27613;48.116;11.656;2022-11-06T03:32:35;9.45;;;6.88;;
41923;SDS011;27613;48.116;11.656;2022-11-06T03:38:18;6.70;;;5.85;;
41923;SDS011;27613;48.116;11.656;2022-11-06T03:40:43;16.83;;;7.30;;
41923;SDS011;27613;48.116;11.656;2022-11-06T03:43:14;8.40;;;6.60;;
41923;SDS011;27613;48.116;11.656;2022-11-06T03:45:42;9.10;;;7.20;;
41923;SDS011;27613;48.116;11.656;2022-11-06T03:48:13;9.65;;;7.40;;
41923;SDS011;27613;48.116;11.656;2022-11-06T03:50:45;9.57;;;7.43;;
41923;SDS011;27613;48.116;11.656;2022-11-06T03:53:30;11.80;;;8.02;;
41923;SDS011;27613;48.116;11.656;2022-11-06T03:56:08;15.88;;;8.02;;
41923;SDS011;27613;48.116;11.656;2022-11-06T03:58:39;11.18;;;7.97;;
41923;SDS011;27613;48.116;11.656;2022-11-06T04:01:10;9.52;;;7.40;;
41923;SDS011;27613;48.116;11.656;2022-11-06T04:03:44;8.88;;;7.20;;
41923;SDS011;27613;48.116;11.656;2022-11-06T04:06:37;12.93;;;7.05;;
41923;SDS011;27613;48.116;11.656;2022-11-06T04:09:08;10.02;;;7.40;;
41923;SDS011;27613;48.116;11.656;2022-11-06T04:11:56;9.15;;;6.65;;
41923;SDS011;27613;48.116;11.656;2022-11-06T04:14:44;8.65;;;6.43;;
41923;SDS011;27613;48.116;11.656;2022-11-06T04:17:13;9.05;;;6.10;;
41923;SDS011;27613;48.116;11.656;2022-11-06T04:19:44;8.50;;;5.60;;
41923;SDS011;27613;48.116;11.656;2022-11-06T04:28:07;8.55;;;6.22;;
41923;SDS011;27613;48.116;11.656;2022-11-06T04:33:31;9.32;;;6.50;;
41923;SDS011;27613;48.116;11.656;2022-11-06T04:39:25;9.43;;;6.03;;
41923;SDS011;27613;48.116;11.656;2022-11-06T04:42:10;8.05;;;5.82;;
41923;SDS011;27613;48.116;11.656;2022-11-06T04:44:45;6.68;;;5.13;;
41923;SDS011;27613;48.116;11.656;2022-11-06T04:47:15;7.45;;;5.88;;
41923;SDS011;27613;48.116;11.656;2022-11-06T04:49:44;7.88;;;5.38;;
41923;SDS011;27613;48.116;11.656;2022-11-06T04:52:14;9.48;;;5.10;;
41923;SDS011;27613;48.116;11.656;2022-11-06T04:54:44;7.20;;;5.38;;
41923;SDS011;27613;48.116;11.656;2022-11-06T04:57:11;8.40;;;4.70;;
41923;SDS011;27613;48.116;11.656;2022-11-06T04:59:37;6.70;;;4.95;;
41923;SDS011;27613;48.116;11.656;2022-11-06T05:02:03;6.03;;;4.55;;
41923;SDS011;27613;48.116;11.656;2022-11-06T05:04:30;6.53;;;5.05;;
41923;SDS011;27613;48.116;11.656;2022-11-06T05:06:56;5.40;;;4.32;;
41923;SDS011;27613;48.116;11.656;2022-11-06T05:09:21;5.95;;;4.93;;
41923;SDS011;27613;48.116;11.656;2022-11-06T05:11:47;7.05;;;5.32;;
41923;SDS011;27613;48.116;11.656;2022-11-06T05:14:13;5.57;;;4.60;;
41923;SDS011;27613;48.116;11.656;2022-11-06T05:16:38;5.65;;;4.47;;
41923;SDS011;27613;48.116;11.656;2022-11-06T05:19:04;6.53;;;4.10;;
41923;SDS011;27613;48.116;11.656;2022-11-06T05:21:30;5.75;;;4.00;;
41923;SDS011;27613;48.116;11.656;2022-11-06T05:24:14;6.85;;;4.47;;
41923;SDS011;27613;48.116;11.656;2022-11-06T05:26:39;5.20;;;4.30;;
41923;SDS011;27613;48.116;11.656;2022-11-06T05:29:05;5.57;;;4.40;;
41923;SDS011;27613;48.116;11.656;2022-11-06T05:31:30;5.30;;;4.32;;
41923;SDS011;27613;48.116;11.656;2022-11-06T05:33:56;7.38;;;4.15;;
41923;SDS011;27613;48.116;11.656;2022-11-06T05:36:22;5.88;;;4.53;;
41923;SDS011;27613;48.116;11.656;2022-11-06T05:38:47;6.25;;;4.50;;
41923;SDS011;27613;48.116;11.656;2022-11-06T05:41:13;5.65;;;4.05;;
41923;SDS011;27613;48.116;11.656;2022-11-06T05:43:38;4.90;;;3.95;;
41923;SDS011;27613;48.116;11.656;2022-11-06T05:46:04;5.18;;;4.03;;
41923;SDS011;27613;48.116;11.656;2022-11-06T05:48:30;8.00;;;4.60;;
41923;SDS011;27613;48.116;11.656;2022-11-06T05:51:02;5.70;;;3.85;;
41923;SDS011;27613;48.116;11.656;2022-11-06T05:53:30;6.38;;;4.30;;
41923;SDS011;27613;48.116;11.656;2022-11-06T05:55:57;6.07;;;4.78;;
41923;SDS011;27613;48.116;11.656;2022-11-06T05:58:23;7.32;;;4.22;;
41923;SDS011;27613;48.116;11.656;2022-11-06T06:00:50;6.45;;;4.50;;
41923;SDS011;27613;48.116;11.656;2022-11-06T06:03:16;5.32;;;4.03;;
41923;SDS011;27613;48.116;11.656;2022-11-06T06:05:42;6.72;;;4.82;;
41923;SDS011;27613;48.116;11.656;2022-11-06T06:08:07;10.90;;;4.43;;
41923;SDS011;27613;48.116;11.656;2022-11-06T06:10:33;8.40;;;5.10;;
41923;SDS011;27613;48.116;11.656;2022-11-06T06:12:58;6.65;;;5.03;;
41923;SDS011;27613;48.116;11.656;2022-11-06T06:15:24;6.32;;;4.90;;
41923;SDS011;27613;48.116;11.656;2022-11-06T06:17:49;5.78;;;4.70;;
41923;SDS011;27613;48.116;11.656;2022-11-06T06:20:15;5.43;;;4.82;;
41923;SDS011;27613;48.116;11.656;2022-11-06T06:22:41;8.55;;;5.90;;
41923;SDS011;27613;48.116;11.656;2022-11-06T06:25:06;13.02;;;6.15;;
41923;SDS011;27613;48.116;11.656;2022-11-06T06:27:32;9.35;;;5.80;;
41923;SDS011;27613;48.116;11.656;2022-11-06T06:29:58;16.95;;;5.65;;
41923;SDS011;27613;48.116;11.656;2022-11-06T06:32:23;19.17;;;6.20;;
41923;SDS011;27613;48.116;11.656;2022-11-06T06:34:49;12.80;;;6.30;;
41923;SDS011;27613;48.116;11.656;2022-11-06T06:37:15;10.43;;;5.90;;
41923;SDS011;27613;48.116;11.656;2022-11-06T06:39:40;13.35;;;6.18;;
41923;SDS011;27613;48.116;11.656;2022-11-06T06:42:06;14.10;;;6.28;;
41923;SDS011;27613;48.116;11.656;2022-11-06T06:44:31;7.22;;;5.22;;
41923;SDS011;27613;48.116;11.656;2022-11-06T06:46:57;7.22;;;5.75;;
41923;SDS011;27613;48.116;11.656;2022-11-06T06:49:22;6.72;;;5.30;;
41923;SDS011;27613;48.116;11.656;2022-11-06T06:51:48;11.95;;;5.53;;
41923;SDS011;27613;48.116;11.656;2022-11-06T06:54:14;5.60;;;4.80;;
41923;SDS011;27613;48.116;11.656;2022-11-06T06:56:40;8.43;;;6.47;;
41923;SDS011;27613;48.116;11.656;2022-11-06T06:59:06;7.10;;;5.88;;
41923;SDS011;27613;48.116;11.656;2022-11-06T07:01:32;22.55;;;12.02;;
41923;SDS011;27613;48.116;11.656;2022-11-06T07:03:58;15.13;;;8.50;;
41923;SDS011;27613;48.116;11.656;2022-11-06T07:06:24;11.80;;;7.28;;
41923;SDS011;27613;48.116;11.656;2022-11-06T07:08:53;8.60;;;6.53;;
41923;SDS011;27613;48.116;11.656;2022-11-06T07:11:19;10.35;;;6.32;;
41923;SDS011;27613;48.116;11.656;2022-11-06T07:13:45;9.15;;;7.50;;
41923;SDS011;27613;48.116;11.656;2022-11-06T07:16:11;15.63;;;11.05;;
41923;SDS011;27613;48.116;11.656;2022-11-06T07:18:37;22.85;;;11.10;;
41923;SDS011;27613;48.116;11.656;2022-11-06T07:21:07;25.20;;;14.60;;
41923;SDS011;27613;48.116;11.656;2022-11-06T07:23:34;26.50;;;14.82;;
41923;SDS011;27613;48.116;11.656;2022-11-06T07:26:01;35.17;;;18.38;;
41923;SDS011;27613;48.116;11.656;2022-11-06T07:28:28;32.65;;;18.42;;
41923;SDS011;27613;48.116;11.656;2022-11-06T07:31:00;24.10;;;14.73;;
41923;SDS011;27613;48.116;11.656;2022-11-06T07:33:26;15.07;;;10.27;;
41923;SDS011;27613;48.116;11.656;2022-11-06T07:35:52;9.27;;;8.02;;
41923;SDS011;27613;48.116;11.656;2022-11-06T07:38:18;10.27;;;7.07;;
41923;SDS011;27613;48.116;11.656;2022-11-06T07:40:44;8.68;;;7.63;;
41923;SDS011;27613;48.116;11.656;2022-11-06T07:43:10;7.88;;;6.43;;
41923;SDS011;27613;48.116;11.656;2022-11-06T07:45:36;8.90;;;7.40;;
41923;SDS011;27613;48.116;11.656;2022-11-06T07:48:03;8.30;;;7.15;;
41923;SDS011;27613;48.116;11.656;2022-11-06T07:50:29;9.27;;;7.05;;
41923;SDS011;27613;48.116;11.656;2022-11-06T07:52:55;8.80;;;7.90;;
41923;SDS011;27613;48.116;11.656;2022-11-06T07:55:21;7.82;;;6.75;;
41923;SDS011;27613;48.116;11.656;2022-11-06T07:57:47;8.52;;;7.28;;
41923;SDS011;27613;48.116;11.656;2022-11-06T08:00:13;8.93;;;7.13;;
41923;SDS011;27613;48.116;11.656;2022-11-06T08:02:39;5.78;;;4.93;;
41923;SDS011;27613;48.116;11.656;2022-11-06T08:05:05;5.82;;;4.80;;
41923;SDS011;27613;48.116;11.656;2022-11-06T08:07:31;5.05;;;4.00;;
41923;SDS011;27613;48.116;11.656;2022-11-06T08:09:57;4.68;;;3.70;;
41923;SDS011;27613;48.116;11.656;2022-11-06T08:12:23;4.82;;;4.22;;
41923;SDS011;27613;48.116;11.656;2022-11-06T08:14:48;7.00;;;4.35;;
41923;SDS011;27613;48.116;11.656;2022-11-06T08:17:14;4.75;;;3.88;;
41923;SDS011;27613;48.116;11.656;2022-11-06T08:19:39;4.55;;;3.83;;
41923;SDS011;27613;48.116;11.656;2022-11-06T08:22:05;5.43;;;4.10;;
41923;SDS011;27613;48.116;11.656;2022-11-06T08:24:30;4.75;;;3.92;;
41923;SDS011;27613;48.116;11.656;2022-11-06T08:26:56;4.45;;;3.53;;
41923;SDS011;27613;48.116;11.656;2022-11-06T08:29:22;3.33;;;3.03;;
41923;SDS011;27613;48.116;11.656;2022-11-06T08:31:48;4.18;;;3.30;;
41923;SDS011;27613;48.116;11.656;2022-11-06T08:34:14;4.88;;;3.00;;
41923;SDS011;27613;48.116;11.656;2022-11-06T08:36:40;3.47;;;2.60;;
41923;SDS011;27613;48.116;11.656;2022-11-06T08:39:14;2.92;;;2.42;;
41923;SDS011;27613;48.116;11.656;2022-11-06T08:41:40;3.10;;;2.70;;
41923;SDS011;27613;48.116;11.656;2022-11-06T08:44:06;4.65;;;2.92;;
41923;SDS011;27613;48.116;11.656;2022-11-06T08:46:32;3.42;;;2.70;;
41923;SDS011;27613;48.116;11.656;2022-11-06T08:48:58;3.67;;;2.47;;
41923;SDS011;27613;48.116;11.656;2022-11-06T08:51:23;2.88;;;2.53;;
41923;SDS011;27613;48.116;11.656;2022-11-06T08:53:49;3.22;;;2.75;;
41923;SDS011;27613;48.116;11.656;2022-11-06T08:56:15;4.53;;;2.80;;
41923;SDS011;27613;48.116;11.656;2022-11-06T08:58:41;3.78;;;2.90;;
41923;SDS011;27613;48.116;11.656;2022-11-06T09:01:07;3.50;;;3.08;;
41923;SDS011;27613;48.116;11.656;2022-11-06T09:03:33;2.67;;;2.35;;
41923;SDS011;27613;48.116;11.656;2022-11-06T09:05:59;3.22;;;2.60;;
41923;SDS011;27613;48.116;11.656;2022-11-06T09:08:24;3.20;;;2.22;;
41923;SDS011;27613;48.116;11.656;2022-11-06T09:10:50;3.75;;;2.80;;
41923;SDS011;27613;48.116;11.656;2022-11-06T09:13:16;4.32;;;2.83;;
41923;SDS011;27613;48.116;11.656;2022-11-06T09:15:41;4.38;;;3.10;;
41923;SDS011;27613;48.116;11.656;2022-11-06T09:18:07;3.55;;;2.90;;
41923;SDS011;27613;48.116;11.656;2022-11-06T09:20:34;4.05;;;2.78;;
41923;SDS011;27613;48.116;11.656;2022-11-06T09:23:00;4.07;;;3.00;;
41923;SDS011;27613;48.116;11.656;2022-11-06T09:25:30;3.90;;;3.33;;
41923;SDS011;27613;48.116;11.656;2022-11-06T09:27:56;3.92;;;3.10;;
41923;SDS011;27613;48.116;11.656;2022-11-06T09:30:23;3.80;;;3.08;;
41923;SDS011;27613;48.116;11.656;2022-11-06T09:32:50;3.08;;;2.58;;
41923;SDS011;27613;48.116;11.656;2022-11-06T09:35:18;3.63;;;2.90;;
41923;SDS011;27613;48.116;11.656;2022-11-06T09:37:44;3.00;;;2.70;;
41923;SDS011;27613;48.116;11.656;2022-11-06T09:40:17;4.78;;;3.10;;
41923;SDS011;27613;48.116;11.656;2022-11-06T09:45:14;4.13;;;3.38;;
41923;SDS011;27613;48.116;11.656;2022-11-06T09:47:46;3.25;;;2.65;;
41923;SDS011;27613;48.116;11.656;2022-11-06T09:50:23;4.47;;;3.50;;
41923;SDS011;27613;48.116;11.656;2022-11-06T09:52:54;4.35;;;3.13;;
41923;SDS011;27613;48.116;11.656;2022-11-06T09:55:30;4.53;;;3.53;;
41923;SDS011;27613;48.116;11.656;2022-11-06T09:58:17;4.32;;;3.22;;
41923;SDS011;27613;48.116;11.656;2022-11-06T10:00:48;3.50;;;2.80;;
41923;SDS011;27613;48.116;11.656;2022-11-06T10:03:23;3.53;;;2.72;;
41923;SDS011;27613;48.116;11.656;2022-11-06T10:06:17;2.88;;;2.28;;
41923;SDS011;27613;48.116;11.656;2022-11-06T10:08:45;4.78;;;2.75;;
41923;SDS011;27613;48.116;11.656;2022-11-06T10:16:27;3.22;;;2.40;;
41923;SDS011;27613;48.116;11.656;2022-11-06T10:19:28;8.70;;;2.83;;
41923;SDS011;27613;48.116;11.656;2022-11-06T10:22:16;3.40;;;2.42;;
41923;SDS011;27613;48.116;11.656;2022-11-06T10:27:25;2.85;;;2.08;;
41923;SDS011;27613;48.116;11.656;2022-11-06T10:35:24;2.17;;;1.90;;
41923;SDS011;27613;48.116;11.656;2022-11-06T10:38:13;1.90;;;1.70;;
41923;SDS011;27613;48.116;11.656;2022-11-06T10:40:43;3.38;;;1.95;;
41923;SDS011;27613;48.116;11.656;2022-11-06T10:45:46;2.00;;;1.67;;
41923;SDS011;27613;48.116;11.656;2022-11-06T10:50:52;8.85;;;1.77;;
41923;SDS011;27613;48.116;11.656;2022-11-06T10:54:20;2.22;;;1.90;;
41923;SDS011;27613;48.116;11.656;2022-11-06T10:59:27;2.78;;;1.77;;
41923;SDS011;27613;48.116;11.656;2022-11-06T11:01:52;1.92;;;1.60;;
41923;SDS011;27613;48.116;11.656;2022-11-06T11:04:18;2.28;;;1.90;;
41923;SDS011;27613;48.116;11.656;2022-11-06T11:06:43;3.40;;;2.42;;
41923;SDS011;27613;48.116;11.656;2022-11-06T11:11:55;2.58;;;2.17;;
41923;SDS011;27613;48.116;11.656;2022-11-06T11:14:22;3.45;;;2.40;;
41923;SDS011;27613;48.116;11.656;2022-11-06T11:16:50;2.70;;;1.92;;
41923;SDS011;27613;48.116;11.656;2022-11-06T11:19:36;3.28;;;2.60;;
41923;SDS011;27613;48.116;11.656;2022-11-06T11:22:04;3.22;;;2.35;;
41923;SDS011;27613;48.116;11.656;2022-11-06T11:25:03;3.13;;;2.13;;
41923;SDS011;27613;48.116;11.656;2022-11-06T11:27:42;2.42;;;2.05;;
41923;SDS011;27613;48.116;11.656;2022-11-06T11:30:19;3.33;;;2.00;;
41923;SDS011;27613;48.116;11.656;2022-11-06T11:32:47;2.42;;;1.98;;
41923;SDS011;27613;48.116;11.656;2022-11-06T11:35:15;2.00;;;1.50;;
41923;SDS011;27613;48.116;11.656;2022-11-06T11:37:49;1.90;;;1.52;;
41923;SDS011;27613;48.116;11.656;2022-11-06T11:42:53;2.03;;;1.45;;
41923;SDS011;27613;48.116;11.656;2022-11-06T11:45:19;1.45;;;1.33;;
41923;SDS011;27613;48.116;11.656;2022-11-06T11:47:46;2.17;;;1.58;;
41923;SDS011;27613;48.116;11.656;2022-11-06T11:50:18;2.53;;;1.80;;
41923;SDS011;27613;48.116;11.656;2022-11-06T11:52:51;2.72;;;2.00;;
41923;SDS011;27613;48.116;11.656;2022-11-06T11:55:24;3.03;;;2.00;;
41923;SDS011;27613;48.116;11.656;2022-11-06T11:57:52;2.72;;;2.22;;
41923;SDS011;27613;48.116;11.656;2022-11-06T12:00:20;3.13;;;2.33;;
41923;SDS011;27613;48.116;11.656;2022-11-06T12:03:00;2.30;;;1.70;;
41923;SDS011;27613;48.116;11.656;2022-11-06T12:05:36;1.55;;;1.42;;
41923;SDS011;27613;48.116;11.656;2022-11-06T12:08:05;2.28;;;1.70;;
41923;SDS011;27613;48.116;11.656;2022-11-06T12:10:45;1.60;;;1.20;;
41923;SDS011;27613;48.116;11.656;2022-11-06T12:18:30;2.10;;;1.55;;
41923;SDS011;27613;48.116;11.656;2022-11-06T12:23:50;3.28;;;2.58;;
41923;SDS011;27613;48.116;11.656;2022-11-06T12:32:12;2.85;;;2.10;;
41923;SDS011;27613;48.116;11.656;2022-11-06T12:34:53;3.38;;;2.95;;
41923;SDS011;27613;48.116;11.656;2022-11-06T12:37:54;3.63;;;2.92;;
41923;SDS011;27613;48.116;11.656;2022-11-06T12:40:28;3.47;;;2.17;;
41923;SDS011;27613;48.116;11.656;2022-11-06T12:45:21;1.75;;;1.33;;
41923;SDS011;27613;48.116;11.656;2022-11-06T12:48:03;2.05;;;1.58;;
41923;SDS011;27613;48.116;11.656;2022-11-06T12:51:03;2.13;;;1.23;;
41923;SDS011;27613;48.116;11.656;2022-11-06T12:56:30;1.88;;;1.33;;
41923;SDS011;27613;48.116;11.656;2022-11-06T12:59:15;2.72;;;2.28;;
41923;SDS011;27613;48.116;11.656;2022-11-06T13:05:17;3.65;;;2.35;;
41923;SDS011;27613;48.116;11.656;2022-11-06T13:08:02;3.60;;;2.50;;
41923;SDS011;27613;48.116;11.656;2022-11-06T13:13:40;8.40;;;7.32;;
41923;SDS011;27613;48.116;11.656;2022-11-06T13:16:47;2.88;;;2.38;;
41923;SDS011;27613;48.116;11.656;2022-11-06T13:19:36;6.00;;;4.43;;
41923;SDS011;27613;48.116;11.656;2022-11-06T13:22:50;10.10;;;7.32;;
41923;SDS011;27613;48.116;11.656;2022-11-06T13:25:16;5.07;;;4.28;;
41923;SDS011;27613;48.116;11.656;2022-11-06T13:28:21;4.28;;;3.30;;
41923;SDS011;27613;48.116;11.656;2022-11-06T13:31:02;3.20;;;2.35;;
41923;SDS011;27613;48.116;11.656;2022-11-06T13:33:35;12.88;;;7.30;;
41923;SDS011;27613;48.116;11.656;2022-11-06T13:36:05;3.70;;;3.05;;
41923;SDS011;27613;48.116;11.656;2022-11-06T13:38:36;11.65;;;9.55;;
41923;SDS011;27613;48.116;11.656;2022-11-06T13:41:06;4.55;;;3.30;;
41923;SDS011;27613;48.116;11.656;2022-11-06T13:43:47;3.58;;;2.30;;
41923;SDS011;27613;48.116;11.656;2022-11-06T13:46:26;4.53;;;3.53;;
41923;SDS011;27613;48.116;11.656;2022-11-06T14:00:15;2.60;;;1.75;;
41923;SDS011;27613;48.116;11.656;2022-11-06T14:09:03;3.88;;;2.47;;
41923;SDS011;27613;48.116;11.656;2022-11-06T14:11:10;9.85;;;6.75;;
41923;SDS011;27613;48.116;11.656;2022-11-06T14:13:41;9.70;;;6.53;;
41923;SDS011;27613;48.116;11.656;2022-11-06T14:16:33;6.20;;;3.33;;
41923;SDS011;27613;48.116;11.656;2022-11-06T14:19:05;6.45;;;4.30;;
41923;SDS011;27613;48.116;11.656;2022-11-06T14:26:48;7.63;;;5.40;;
41923;SDS011;27613;48.116;11.656;2022-11-06T14:31:59;4.30;;;2.85;;
41923;SDS011;27613;48.116;11.656;2022-11-06T14:34:27;3.70;;;2.78;;
41923;SDS011;27613;48.116;11.656;2022-11-06T14:36:54;5.35;;;3.83;;
41923;SDS011;27613;48.116;11.656;2022-11-06T14:44:53;4.30;;;2.75;;
41923;SDS011;27613;48.116;11.656;2022-11-06T14:47:34;2.33;;;1.90;;
41923;SDS011;27613;48.116;11.656;2022-11-06T14:50:37;2.38;;;1.88;;
41923;SDS011;27613;48.116;11.656;2022-11-06T14:53:12;2.88;;;1.85;;
41923;SDS011;27613;48.116;11.656;2022-11-06T15:01:13;2.65;;;1.88;;
41923;SDS011;27613;48.116;11.656;2022-11-06T15:03:50;3.03;;;2.50;;
41923;SDS011;27613;48.116;11.656;2022-11-06T15:08:57;5.85;;;3.63;;
41923;SDS011;27613;48.116;11.656;2022-11-06T15:13:53;12.38;;;10.73;;
41923;SDS011;27613;48.116;11.656;2022-11-06T15:16:43;13.48;;;9.02;;
41923;SDS011;27613;48.116;11.656;2022-11-06T15:21:42;12.98;;;10.48;;
41923;SDS011;27613;48.116;11.656;2022-11-06T15:24:14;20.73;;;14.13;;
41923;SDS011;27613;48.116;11.656;2022-11-06T15:26:50;22.85;;;11.00;;
41923;SDS011;27613;48.116;11.656;2022-11-06T15:29:25;43.67;;;20.88;;
41923;SDS011;27613;48.116;11.656;2022-11-06T15:32:03;18.88;;;11.68;;
41923;SDS011;27613;48.116;11.656;2022-11-06T15:34:36;13.02;;;9.00;;
41923;SDS011;27613;48.116;11.656;2022-11-06T15:37:29;20.80;;;10.27;;
41923;SDS011;27613;48.116;11.656;2022-11-06T15:40:23;7.13;;;4.20;;
41923;SDS011;27613;48.116;11.656;2022-11-06T15:46:00;3.28;;;2.42;;
41923;SDS011;27613;48.116;11.656;2022-11-06T15:48:45;3.65;;;2.83;;
41923;SDS011;27613;48.116;11.656;2022-11-06T15:53:52;3.67;;;2.95;;
41923;SDS011;27613;48.116;11.656;2022-11-06T15:56:20;4.13;;;2.78;;
41923;SDS011;27613;48.116;11.656;2022-11-06T16:01:38;3.13;;;2.30;;
41923;SDS011;27613;48.116;11.656;2022-11-06T16:04:05;3.70;;;2.67;;
41923;SDS011;27613;48.116;11.656;2022-11-06T16:06:36;4.03;;;3.13;;
41923;SDS011;27613;48.116;11.656;2022-11-06T16:09:03;14.95;;;12.30;;
41923;SDS011;27613;48.116;11.656;2022-11-06T16:11:29;6.47;;;5.60;;
41923;SDS011;27613;48.116;11.656;2022-11-06T16:13:55;5.80;;;4.55;;
41923;SDS011;27613;48.116;11.656;2022-11-06T16:16:55;4.35;;;3.28;;
41923;SDS011;27613;48.116;11.656;2022-11-06T16:19:28;4.78;;;3.35;;
41923;SDS011;27613;48.116;11.656;2022-11-06T16:21:57;4.25;;;3.35;;
41923;SDS011;27613;48.116;11.656;2022-11-06T16:27:18;5.30;;;4.20;;
41923;SDS011;27613;48.116;11.656;2022-11-06T16:29:46;7.68;;;4.82;;
41923;SDS011;27613;48.116;11.656;2022-11-06T16:32:19;5.85;;;4.30;;
41923;SDS011;27613;48.116;11.656;2022-11-06T16:34:50;5.15;;;3.88;;
41923;SDS011;27613;48.116;11.656;2022-11-06T16:39:46;5.35;;;3.55;;
41923;SDS011;27613;48.116;11.656;2022-11-06T16:42:27;4.93;;;3.63;;
41923;SDS011;27613;48.116;11.656;2022-11-06T16:47:28;10.60;;;4.70;;
41923;SDS011;27613;48.116;11.656;2022-11-06T16:49:54;9.98;;;7.07;;
41923;SDS011;27613;48.116;11.656;2022-11-06T16:52:25;11.68;;;7.55;;
41923;SDS011;27613;48.116;11.656;2022-11-06T16:57:25;9.48;;;6.93;;
41923;SDS011;27613;48.116;11.656;2022-11-06T17:00:00;19.10;;;7.90;;
41923;SDS011;27613;48.116;11.656;2022-11-06T17:02:31;8.57;;;6.53;;
41923;SDS011;27613;48.116;11.656;2022-11-06T17:05:12;9.95;;;7.57;;
41923;SDS011;27613;48.116;11.656;2022-11-06T17:07:41;11.15;;;7.05;;
41923;SDS011;27613;48.116;11.656;2022-11-06T17:10:34;10.25;;;6.53;;
41923;SDS011;27613;48.116;11.656;2022-11-06T17:15:40;8.43;;;6.50;;
41923;SDS011;27613;48.116;11.656;2022-11-06T17:18:06;7.88;;;6.22;;
41923;SDS011;27613;48.116;11.656;2022-11-06T17:20:35;7.60;;;6.13;;
41923;SDS011;27613;48.116;11.656;2022-11-06T17:23:01;10.82;;;6.07;;
41923;SDS011;27613;48.116;11.656;2022-11-06T17:25:27;11.02;;;7.38;;
41923;SDS011;27613;48.116;11.656;2022-11-06T17:27:54;9.95;;;7.50;;
41923;SDS011;27613;48.116;11.656;2022-11-06T17:30:19;8.10;;;6.82;;
41923;SDS011;27613;48.116;11.656;2022-11-06T17:32:45;12.52;;;7.88;;